createdAt,value
2022-09-18T00:00:15.352Z,14.09
2022-09-18T00:01:13.137Z,14.09
2022-09-18T00:01:46.442Z,14.07
2022-09-18T00:02:19.679Z,14.07
2022-09-18T00:02:53.040Z,14.08
2022-09-18T00:03:27.841Z,14.09
2022-09-18T00:04:04.657Z,14.09
2022-09-18T00:04:37.889Z,14.07
2022-09-18T00:05:11.859Z,14.08
2022-09-18T00:05:45.013Z,14.08
2022-09-18T00:06:24.083Z,14.08
2022-09-18T00:06:57.339Z,14.09
2022-09-18T00:07:30.730Z,14.08
2022-09-18T00:08:04.747Z,14.07
2022-09-18T00:08:43.882Z,14.07
2022-09-18T00:09:17.266Z,14.07
2022-09-18T00:09:50.405Z,14.06
2022-09-18T00:10:23.809Z,14.04
2022-09-18T00:10:57.025Z,14.05
2022-09-18T00:11:35.701Z,14.04
2022-09-18T00:12:08.793Z,14.06
2022-09-18T00:12:41.938Z,14.07
2022-09-18T00:13:15.712Z,14.07
2022-09-18T00:13:50.148Z,14.07
2022-09-18T00:14:24.115Z,14.07
2022-09-18T00:14:57.295Z,14.08
2022-09-18T00:15:30.620Z,14.08
2022-09-18T00:16:04.802Z,14.09
2022-09-18T00:16:38.750Z,14.09
2022-09-18T00:17:12.083Z,14.09
2022-09-18T00:17:45.285Z,14.09
2022-09-18T00:18:18.453Z,14.09
2022-09-18T00:18:53.031Z,14.08
2022-09-18T00:19:26.477Z,14.07
2022-09-18T00:19:59.532Z,14.05
2022-09-18T00:20:37.554Z,14.05
2022-09-18T00:21:22.631Z,14.04
2022-09-18T00:21:56.364Z,14.04
2022-09-18T00:22:29.855Z,14.03
2022-09-18T00:23:03.551Z,14.01
2022-09-18T00:23:37.457Z,14.01
2022-09-18T00:24:11.314Z,14.00
2022-09-18T00:24:44.418Z,14.00
2022-09-18T00:25:17.448Z,14.00
2022-09-18T00:25:50.809Z,14.01
2022-09-18T00:26:26.013Z,14.01
2022-09-18T00:26:59.158Z,14.02
2022-09-18T00:27:32.371Z,14.03
2022-09-18T00:28:05.454Z,14.02
2022-09-18T00:28:39.213Z,14.02
2022-09-18T00:29:13.897Z,14.01
2022-09-18T00:29:47.281Z,14.01
2022-09-18T00:30:20.535Z,14.00
2022-09-18T00:30:54.252Z,14.00
2022-09-18T00:31:33.997Z,13.98
2022-09-18T00:32:07.344Z,13.98
2022-09-18T00:32:40.625Z,13.97
2022-09-18T00:33:13.785Z,13.96
2022-09-18T00:33:47.334Z,13.96
2022-09-18T00:34:20.528Z,13.96
2022-09-18T00:34:53.539Z,13.97
2022-09-18T00:35:26.768Z,13.97
2022-09-18T00:36:04.924Z,13.98
2022-09-18T00:36:40.005Z,13.98
2022-09-18T00:37:13.503Z,13.98
2022-09-18T00:37:46.599Z,13.98
2022-09-18T00:38:19.844Z,13.98
2022-09-18T00:38:54.038Z,13.99
2022-09-18T00:39:27.336Z,13.99
2022-09-18T00:40:00.747Z,13.99
2022-09-18T00:40:34.101Z,13.98
2022-09-18T00:41:13.451Z,13.97
2022-09-18T00:41:46.805Z,13.97
2022-09-18T00:42:20.832Z,13.96
2022-09-18T00:42:54.305Z,13.97
2022-09-18T00:43:30.022Z,13.96
2022-09-18T00:44:36.763Z,13.96
2022-09-18T00:45:11.051Z,13.93
2022-09-18T00:45:47.337Z,13.92
2022-09-18T00:46:23.959Z,13.92
2022-09-18T00:47:34.485Z,13.92
2022-09-18T00:48:09.678Z,13.90
2022-09-18T00:49:04.912Z,13.89
2022-09-18T00:50:02.581Z,13.90
2022-09-18T00:50:35.995Z,13.88
2022-09-18T00:51:09.551Z,13.88
2022-09-18T00:51:44.778Z,13.89
2022-09-18T00:52:21.554Z,13.90
2022-09-18T00:53:00.617Z,13.90
2022-09-18T00:53:35.006Z,13.90
2022-09-18T00:54:15.264Z,13.89
2022-09-18T00:54:53.537Z,13.88
2022-09-18T00:55:34.276Z,13.87
2022-09-18T00:56:08.645Z,13.86
2022-09-18T00:56:43.028Z,13.86
2022-09-18T00:57:24.798Z,13.85
2022-09-18T00:58:01.510Z,13.85
2022-09-18T00:58:35.499Z,13.84
2022-09-18T00:59:14.259Z,13.84
2022-09-18T00:59:50.952Z,13.85
2022-09-18T01:00:25.205Z,13.85
2022-09-18T01:01:01.592Z,13.86
2022-09-18T01:01:34.810Z,13.86
2022-09-18T01:02:07.999Z,13.87
2022-09-18T01:02:43.684Z,13.87
2022-09-18T01:03:16.912Z,13.88
2022-09-18T01:03:50.134Z,13.86
2022-09-18T01:04:23.638Z,13.87
2022-09-18T01:04:56.935Z,13.87
2022-09-18T01:05:57.935Z,13.87
2022-09-18T01:06:38.843Z,13.86
2022-09-18T01:07:17.689Z,13.85
2022-09-18T01:08:03.528Z,13.82
2022-09-18T01:08:54.704Z,13.80
2022-09-18T01:09:48.602Z,13.78
2022-09-18T01:10:51.374Z,13.74
2022-09-18T01:11:58.885Z,13.71
2022-09-18T01:12:56.351Z,13.67
2022-09-18T01:13:59.956Z,13.66
2022-09-18T01:14:52.877Z,13.65
2022-09-18T01:15:28.980Z,13.63
2022-09-18T01:16:37.590Z,13.63
2022-09-18T01:17:26.259Z,13.64
2022-09-18T01:18:41.886Z,13.63
2022-09-18T01:19:54.272Z,13.63
2022-09-18T01:20:55.212Z,13.60
2022-09-18T01:21:50.676Z,13.58
2022-09-18T01:22:51.700Z,13.56
2022-09-18T01:23:52.557Z,13.55
2022-09-18T01:24:55.739Z,13.53
2022-09-18T01:25:37.779Z,13.53
2022-09-18T01:26:21.931Z,13.54
2022-09-18T01:27:03.289Z,13.55
2022-09-18T01:27:43.929Z,13.55
2022-09-18T01:28:24.828Z,13.56
2022-09-18T01:29:09.131Z,13.58
2022-09-18T01:30:06.138Z,13.58
2022-09-18T01:30:43.107Z,13.56
2022-09-18T01:31:25.342Z,13.56
2022-09-18T01:32:06.637Z,13.57
2022-09-18T01:32:59.478Z,13.58
2022-09-18T01:33:50.618Z,13.58
2022-09-18T01:34:26.553Z,13.58
2022-09-18T01:35:18.731Z,13.56
2022-09-18T01:36:08.320Z,13.54
2022-09-18T01:36:49.756Z,13.53
2022-09-18T01:37:36.718Z,13.54
2022-09-18T01:38:37.202Z,13.56
2022-09-18T01:39:17.232Z,13.56
2022-09-18T01:40:00.533Z,13.56
2022-09-18T01:41:03.260Z,13.57
2022-09-18T01:41:40.176Z,13.57
2022-09-18T01:42:17.946Z,13.57
2022-09-18T01:42:55.358Z,13.58
2022-09-18T01:43:32.027Z,13.59
2022-09-18T01:44:18.163Z,13.60
2022-09-18T01:44:56.149Z,13.61
2022-09-18T01:45:33.921Z,13.61
2022-09-18T01:46:18.137Z,13.61
2022-09-18T01:46:53.179Z,13.61
2022-09-18T01:47:32.839Z,13.61
2022-09-18T01:48:08.815Z,13.62
2022-09-18T01:48:51.496Z,13.61
2022-09-18T01:49:31.508Z,13.61
2022-09-18T01:50:07.327Z,13.61
2022-09-18T01:50:48.659Z,13.61
2022-09-18T01:51:36.508Z,13.63
2022-09-18T01:52:22.084Z,13.65
2022-09-18T01:53:16.870Z,13.65
2022-09-18T01:54:04.765Z,13.65
2022-09-18T01:54:42.503Z,13.64
2022-09-18T01:55:21.206Z,13.64
2022-09-18T01:56:01.686Z,13.64
2022-09-18T01:56:40.487Z,13.63
2022-09-18T01:57:27.888Z,13.62
2022-09-18T01:58:10.162Z,13.60
2022-09-18T01:58:45.262Z,13.60
2022-09-18T01:59:37.404Z,13.59
2022-09-18T02:00:12.891Z,13.58
2022-09-18T02:00:51.580Z,13.56
2022-09-18T02:01:29.614Z,13.56
2022-09-18T02:02:07.637Z,13.56
2022-09-18T02:03:02.239Z,13.56
2022-09-18T02:03:59.028Z,13.56
2022-09-18T02:04:36.187Z,13.51
2022-09-18T02:05:14.701Z,13.46
2022-09-18T02:05:56.508Z,13.44
2022-09-18T02:06:32.602Z,13.44
2022-09-18T02:07:30.467Z,13.44
2022-09-18T02:08:30.362Z,13.42
2022-09-18T02:09:04.211Z,13.40
2022-09-18T02:09:37.771Z,13.38
2022-09-18T02:10:10.847Z,13.37
2022-09-18T02:10:52.546Z,13.36
2022-09-18T02:11:25.988Z,13.34
2022-09-18T02:12:01.623Z,13.31
2022-09-18T02:12:39.360Z,13.27
2022-09-18T02:13:18.583Z,13.23
2022-09-18T02:14:33.311Z,13.21
2022-09-18T02:15:11.452Z,13.16
2022-09-18T02:15:49.124Z,13.12
2022-09-18T02:16:30.778Z,13.10
2022-09-18T02:17:11.018Z,13.07
2022-09-18T02:17:54.086Z,13.06
2022-09-18T02:18:37.692Z,13.04
2022-09-18T02:19:25.722Z,13.03
2022-09-18T02:20:14.105Z,13.02
2022-09-18T02:20:47.874Z,13.01
2022-09-18T02:21:28.899Z,13.01
2022-09-18T02:22:07.213Z,13.02
2022-09-18T02:22:45.030Z,13.01
2022-09-18T02:23:18.770Z,13.00
2022-09-18T02:23:53.952Z,12.99
2022-09-18T02:24:36.561Z,12.99
2022-09-18T02:25:13.756Z,12.99
2022-09-18T02:25:59.964Z,13.00
2022-09-18T02:26:35.853Z,13.00
2022-09-18T02:27:11.703Z,13.00
2022-09-18T02:27:45.002Z,12.99
2022-09-18T02:28:22.055Z,12.96
2022-09-18T02:28:56.846Z,12.96
2022-09-18T02:29:31.866Z,12.96
2022-09-18T02:30:06.864Z,12.96
2022-09-18T02:30:40.121Z,12.95
2022-09-18T02:31:13.390Z,12.93
2022-09-18T02:31:46.697Z,12.94
2022-09-18T02:32:19.958Z,12.93
2022-09-18T02:32:55.439Z,12.93
2022-09-18T02:33:34.131Z,12.93
2022-09-18T02:34:09.549Z,12.94
2022-09-18T02:34:43.056Z,12.95
2022-09-18T02:35:16.334Z,12.93
2022-09-18T02:35:56.561Z,12.92
2022-09-18T02:37:09.249Z,12.90
2022-09-18T02:37:52.019Z,12.84
2022-09-18T02:38:34.387Z,12.81
2022-09-18T02:39:42.984Z,12.81
2022-09-18T02:40:38.617Z,12.78
2022-09-18T02:41:24.017Z,12.73
2022-09-18T02:42:03.131Z,12.72
2022-09-18T02:42:41.900Z,12.72
2022-09-18T02:43:54.611Z,12.71
2022-09-18T02:44:39.886Z,12.68
2022-09-18T02:45:16.130Z,12.68
2022-09-18T02:46:06.101Z,12.68
2022-09-18T02:47:04.060Z,12.71
2022-09-18T02:48:03.213Z,12.70
2022-09-18T02:48:48.234Z,12.69
2022-09-18T02:49:37.092Z,12.68
2022-09-18T02:50:32.471Z,12.67
2022-09-18T02:51:37.260Z,12.66
2022-09-18T02:53:00.102Z,12.66
2022-09-18T02:53:46.575Z,12.65
2022-09-18T02:54:28.481Z,12.64
2022-09-18T02:55:29.410Z,12.64
2022-09-18T02:56:09.157Z,12.66
2022-09-18T02:56:52.801Z,12.67
2022-09-18T02:57:40.721Z,12.71
2022-09-18T02:58:26.351Z,12.75
2022-09-18T02:59:24.823Z,12.76
2022-09-18T03:00:01.744Z,12.78
2022-09-18T03:00:36.532Z,12.79
2022-09-18T03:01:12.297Z,12.81
2022-09-18T03:01:46.444Z,12.83
2022-09-18T03:02:23.119Z,12.85
2022-09-18T03:02:59.960Z,12.85
2022-09-18T03:03:37.600Z,12.84
2022-09-18T03:04:13.683Z,12.83
2022-09-18T03:04:46.800Z,12.83
2022-09-18T03:05:20.093Z,12.84
2022-09-18T03:05:53.080Z,12.85
2022-09-18T03:06:26.184Z,12.87
2022-09-18T03:06:59.532Z,12.87
2022-09-18T03:07:32.721Z,12.87
2022-09-18T03:08:05.910Z,12.85
2022-09-18T03:08:39.232Z,12.83
2022-09-18T03:09:13.492Z,12.83
2022-09-18T03:09:46.809Z,12.84
2022-09-18T03:10:19.927Z,12.84
2022-09-18T03:10:52.953Z,12.84
2022-09-18T03:11:26.103Z,12.85
2022-09-18T03:11:59.315Z,12.87
2022-09-18T03:12:32.460Z,12.88
2022-09-18T03:13:05.409Z,12.88
2022-09-18T03:13:38.564Z,12.89
2022-09-18T03:14:12.894Z,12.90
2022-09-18T03:14:45.902Z,12.90
2022-09-18T03:15:18.953Z,12.92
2022-09-18T03:15:52.174Z,12.94
2022-09-18T03:16:25.473Z,12.96
2022-09-18T03:16:58.592Z,12.98
2022-09-18T03:17:31.673Z,13.00
2022-09-18T03:18:04.744Z,13.01
2022-09-18T03:18:37.790Z,13.03
2022-09-18T03:19:12.092Z,13.04
2022-09-18T03:19:46.224Z,13.05
2022-09-18T03:20:19.491Z,13.05
2022-09-18T03:20:52.664Z,13.05
2022-09-18T03:21:26.969Z,13.05
2022-09-18T03:22:00.266Z,13.07
2022-09-18T03:22:33.458Z,13.07
2022-09-18T03:23:06.572Z,13.07
2022-09-18T03:23:44.786Z,13.06
2022-09-18T03:24:20.058Z,13.06
2022-09-18T03:24:53.192Z,13.05
2022-09-18T03:25:26.214Z,13.05
2022-09-18T03:25:59.289Z,13.05
2022-09-18T03:26:32.512Z,13.05
2022-09-18T03:27:05.773Z,13.07
2022-09-18T03:27:39.272Z,13.09
2022-09-18T03:28:12.624Z,13.09
2022-09-18T03:28:45.609Z,13.10
2022-09-18T03:29:18.719Z,13.11
2022-09-18T03:29:51.717Z,13.12
2022-09-18T03:30:24.781Z,13.12
2022-09-18T03:30:58.048Z,13.13
2022-09-18T03:31:31.430Z,13.12
2022-09-18T03:32:05.089Z,13.12
2022-09-18T03:32:38.229Z,13.13
2022-09-18T03:33:11.367Z,13.12
2022-09-18T03:33:44.353Z,13.12
2022-09-18T03:34:17.696Z,13.11
2022-09-18T03:34:51.109Z,13.11
2022-09-18T03:35:24.183Z,13.11
2022-09-18T03:35:57.349Z,13.11
2022-09-18T03:36:30.752Z,13.11
2022-09-18T03:37:04.095Z,13.12
2022-09-18T03:37:37.389Z,13.13
2022-09-18T03:38:10.976Z,13.14
2022-09-18T03:38:44.461Z,13.15
2022-09-18T03:39:18.336Z,13.15
2022-09-18T03:39:51.569Z,13.16
2022-09-18T03:40:24.879Z,13.16
2022-09-18T03:40:58.095Z,13.16
2022-09-18T03:41:31.236Z,13.17
2022-09-18T03:42:04.426Z,13.17
2022-09-18T03:42:37.794Z,13.16
2022-09-18T03:43:11.421Z,13.16
2022-09-18T03:43:44.966Z,13.15
2022-09-18T03:44:18.084Z,13.13
2022-09-18T03:44:51.169Z,13.13
2022-09-18T03:45:24.338Z,13.14
2022-09-18T03:45:57.466Z,13.14
2022-09-18T03:46:30.708Z,13.14
2022-09-18T03:47:04.217Z,13.14
2022-09-18T03:47:38.008Z,13.14
2022-09-18T03:48:11.442Z,13.14
2022-09-18T03:48:44.608Z,13.13
2022-09-18T03:49:18.189Z,13.13
2022-09-18T03:49:51.471Z,13.13
2022-09-18T03:50:24.614Z,13.12
2022-09-18T03:50:57.677Z,13.13
2022-09-18T03:51:30.998Z,13.13
2022-09-18T03:52:04.604Z,13.14
2022-09-18T03:52:37.664Z,13.12
2022-09-18T03:53:12.825Z,13.10
2022-09-18T03:53:47.542Z,13.10
2022-09-18T03:54:20.697Z,13.09
2022-09-18T03:54:55.206Z,13.09
2022-09-18T03:55:28.358Z,13.08
2022-09-18T03:56:01.518Z,13.08
2022-09-18T03:56:34.803Z,13.08
2022-09-18T03:57:07.936Z,13.07
2022-09-18T03:57:41.053Z,13.06
2022-09-18T03:58:14.178Z,13.04
2022-09-18T03:58:47.351Z,13.05
2022-09-18T03:59:20.376Z,13.04
2022-09-18T03:59:54.129Z,13.04
2022-09-18T04:00:27.424Z,13.05
2022-09-18T04:01:00.679Z,13.05
2022-09-18T04:01:33.935Z,13.06
2022-09-18T04:02:07.326Z,13.06
2022-09-18T04:02:41.173Z,13.06
2022-09-18T04:03:14.558Z,13.08
2022-09-18T04:03:47.805Z,13.08
2022-09-18T04:04:20.881Z,13.07
2022-09-18T04:04:54.375Z,13.06
2022-09-18T04:05:27.560Z,13.05
2022-09-18T04:06:00.859Z,13.04
2022-09-18T04:06:33.995Z,13.04
2022-09-18T04:07:08.533Z,13.03
2022-09-18T04:07:41.608Z,13.03
2022-09-18T04:08:14.603Z,13.02
2022-09-18T04:08:47.650Z,13.02
2022-09-18T04:09:20.854Z,13.02
2022-09-18T04:09:54.057Z,13.02
2022-09-18T04:10:27.684Z,13.02
2022-09-18T04:11:00.940Z,13.04
2022-09-18T04:11:33.963Z,13.05
2022-09-18T04:12:07.291Z,13.06
2022-09-18T04:12:40.503Z,13.06
2022-09-18T04:13:13.645Z,13.06
2022-09-18T04:13:46.883Z,13.07
2022-09-18T04:14:20.035Z,13.08
2022-09-18T04:14:53.360Z,13.08
2022-09-18T04:15:28.299Z,13.08
2022-09-18T04:16:02.050Z,13.07
2022-09-18T04:16:35.183Z,13.06
2022-09-18T04:17:08.373Z,13.06
2022-09-18T04:17:41.489Z,13.06
2022-09-18T04:18:14.684Z,13.06
2022-09-18T04:18:48.561Z,13.06
2022-09-18T04:19:21.722Z,13.05
2022-09-18T04:19:55.206Z,13.03
2022-09-18T04:20:29.381Z,13.03
2022-09-18T04:21:02.562Z,13.02
2022-09-18T04:21:35.739Z,13.03
2022-09-18T04:22:08.937Z,13.04
2022-09-18T04:22:42.047Z,13.05
2022-09-18T04:23:15.617Z,13.06
2022-09-18T04:23:49.527Z,13.07
2022-09-18T04:24:22.645Z,13.08
2022-09-18T04:24:55.790Z,13.08
2022-09-18T04:25:29.070Z,13.09
2022-09-18T04:26:09.175Z,13.09
2022-09-18T04:26:42.191Z,13.09
2022-09-18T04:27:15.303Z,13.08
2022-09-18T04:27:48.346Z,13.07
2022-09-18T04:28:21.454Z,13.07
2022-09-18T04:28:54.507Z,13.06
2022-09-18T04:29:27.645Z,13.06
2022-09-18T04:30:00.832Z,13.05
2022-09-18T04:30:34.139Z,13.03
2022-09-18T04:31:07.434Z,13.01
2022-09-18T04:31:40.730Z,13.00
2022-09-18T04:32:14.133Z,12.99
2022-09-18T04:32:47.456Z,12.99
2022-09-18T04:33:20.695Z,12.96
2022-09-18T04:33:54.044Z,12.95
2022-09-18T04:34:27.292Z,12.93
2022-09-18T04:35:00.629Z,12.93
2022-09-18T04:35:34.208Z,12.93
2022-09-18T04:36:07.486Z,12.93
2022-09-18T04:36:40.665Z,12.93
2022-09-18T04:37:13.676Z,12.94
2022-09-18T04:37:46.877Z,12.93
2022-09-18T04:38:27.730Z,12.93
2022-09-18T04:39:01.100Z,12.94
2022-09-18T04:39:34.333Z,12.92
2022-09-18T04:40:08.007Z,12.91
2022-09-18T04:40:41.368Z,12.91
2022-09-18T04:41:14.779Z,12.91
2022-09-18T04:41:47.957Z,12.92
2022-09-18T04:42:21.054Z,12.92
2022-09-18T04:42:54.088Z,12.92
2022-09-18T04:43:28.343Z,12.91
2022-09-18T04:44:01.729Z,12.90
2022-09-18T04:44:34.930Z,12.90
2022-09-18T04:45:08.807Z,12.89
2022-09-18T04:45:45.498Z,12.90
2022-09-18T04:46:18.705Z,12.89
2022-09-18T04:46:51.987Z,12.90
2022-09-18T04:47:25.257Z,12.89
2022-09-18T04:47:58.480Z,12.90
2022-09-18T04:48:31.739Z,12.91
2022-09-18T04:49:05.213Z,12.92
2022-09-18T04:49:38.666Z,12.93
2022-09-18T04:50:11.956Z,12.93
2022-09-18T04:50:48.951Z,12.92
2022-09-18T04:51:22.211Z,12.93
2022-09-18T04:51:55.470Z,12.92
2022-09-18T04:52:28.905Z,12.93
2022-09-18T04:53:01.974Z,12.93
2022-09-18T04:53:38.287Z,12.93
2022-09-18T04:54:12.090Z,12.92
2022-09-18T04:54:45.297Z,12.93
2022-09-18T04:55:18.409Z,12.94
2022-09-18T04:55:51.960Z,12.94
2022-09-18T04:56:25.171Z,12.95
2022-09-18T04:56:58.421Z,12.95
2022-09-18T04:57:31.623Z,12.94
2022-09-18T04:58:05.544Z,12.94
2022-09-18T04:58:38.743Z,12.94
2022-09-18T04:59:11.894Z,12.94
2022-09-18T04:59:45.100Z,12.94
2022-09-18T05:00:18.232Z,12.93
2022-09-18T05:00:51.572Z,12.93
2022-09-18T05:01:25.043Z,12.91
2022-09-18T05:01:59.581Z,12.89
2022-09-18T05:02:33.002Z,12.86
2022-09-18T05:03:06.985Z,12.82
2022-09-18T05:03:40.105Z,12.76
2022-09-18T05:04:13.508Z,12.70
2022-09-18T05:04:46.655Z,12.66
2022-09-18T05:05:19.762Z,12.62
2022-09-18T05:05:53.039Z,12.61
2022-09-18T05:06:26.514Z,12.60
2022-09-18T05:06:59.629Z,12.60
2022-09-18T05:07:33.058Z,12.60
2022-09-18T05:08:06.775Z,12.60
2022-09-18T05:08:39.819Z,12.60
2022-09-18T05:09:13.322Z,12.62
2022-09-18T05:09:46.622Z,12.62
2022-09-18T05:10:19.891Z,12.63
2022-09-18T05:10:54.113Z,12.63
2022-09-18T05:11:28.302Z,12.62
2022-09-18T05:12:02.211Z,12.63
2022-09-18T05:12:35.335Z,12.63
2022-09-18T05:13:09.177Z,12.63
2022-09-18T05:13:43.633Z,12.62
2022-09-18T05:14:16.716Z,12.61
2022-09-18T05:14:49.894Z,12.59
2022-09-18T05:15:23.383Z,12.57
2022-09-18T05:15:58.405Z,12.57
2022-09-18T05:16:31.797Z,12.56
2022-09-18T05:17:05.282Z,12.53
2022-09-18T05:17:42.032Z,12.52
2022-09-18T05:18:15.420Z,12.51
2022-09-18T05:18:48.575Z,12.51
2022-09-18T05:19:21.747Z,12.53
2022-09-18T05:19:55.588Z,12.54
2022-09-18T05:20:29.116Z,12.53
2022-09-18T05:21:03.761Z,12.53
2022-09-18T05:21:37.145Z,12.51
2022-09-18T05:22:10.493Z,12.50
2022-09-18T05:22:47.453Z,12.48
2022-09-18T05:23:20.598Z,12.48
2022-09-18T05:23:53.853Z,12.48
2022-09-18T05:24:26.941Z,12.48
2022-09-18T05:25:00.366Z,12.49
2022-09-18T05:25:33.684Z,12.48
2022-09-18T05:26:07.225Z,12.48
2022-09-18T05:26:40.550Z,12.48
2022-09-18T05:27:13.757Z,12.46
2022-09-18T05:27:57.699Z,12.45
2022-09-18T05:28:31.372Z,12.44
2022-09-18T05:29:04.758Z,12.42
2022-09-18T05:29:37.984Z,12.41
2022-09-18T05:30:11.206Z,12.43
2022-09-18T05:30:44.289Z,12.43
2022-09-18T05:31:18.092Z,12.44
2022-09-18T05:31:51.532Z,12.45
2022-09-18T05:32:24.918Z,12.46
2022-09-18T05:33:00.688Z,12.46
2022-09-18T05:33:47.471Z,12.47
2022-09-18T05:34:20.627Z,12.46
2022-09-18T05:34:53.839Z,12.46
2022-09-18T05:35:29.114Z,12.47
2022-09-18T05:36:04.487Z,12.47
2022-09-18T05:36:37.640Z,12.47
2022-09-18T05:37:10.844Z,12.46
2022-09-18T05:37:44.026Z,12.45
2022-09-18T05:38:17.052Z,12.45
2022-09-18T05:38:50.179Z,12.45
2022-09-18T05:39:23.369Z,12.46
2022-09-18T05:39:56.840Z,12.46
2022-09-18T05:40:33.887Z,12.47
2022-09-18T05:41:07.124Z,12.48
2022-09-18T05:41:40.220Z,12.49
2022-09-18T05:42:13.876Z,12.51
2022-09-18T05:42:48.369Z,12.52
2022-09-18T05:43:21.596Z,12.54
2022-09-18T05:43:55.087Z,12.54
2022-09-18T05:44:28.317Z,12.55
2022-09-18T05:45:02.158Z,12.56
2022-09-18T05:45:35.543Z,12.57
2022-09-18T05:46:08.959Z,12.58
2022-09-18T05:46:42.393Z,12.59
2022-09-18T05:47:15.617Z,12.60
2022-09-18T05:48:00.812Z,12.60
2022-09-18T05:48:34.033Z,12.61
2022-09-18T05:49:07.203Z,12.61
2022-09-18T05:49:40.197Z,12.62
2022-09-18T05:50:13.361Z,12.63
2022-09-18T05:50:46.833Z,12.64
2022-09-18T05:51:20.226Z,12.66
2022-09-18T05:51:55.007Z,12.68
2022-09-18T05:52:28.197Z,12.70
2022-09-18T05:53:02.784Z,12.71
2022-09-18T05:53:36.103Z,12.73
2022-09-18T05:54:09.071Z,12.74
2022-09-18T05:54:42.578Z,12.76
2022-09-18T05:55:15.843Z,12.78
2022-09-18T05:55:49.056Z,12.80
2022-09-18T05:56:22.304Z,12.81
2022-09-18T05:56:55.432Z,12.83
2022-09-18T05:57:28.805Z,12.83
2022-09-18T05:58:03.532Z,12.84
2022-09-18T05:58:36.620Z,12.85
2022-09-18T05:59:09.736Z,12.86
2022-09-18T05:59:43.288Z,12.86
2022-09-18T06:00:16.668Z,12.86
2022-09-18T06:00:51.575Z,12.87
2022-09-18T06:01:24.722Z,12.88
2022-09-18T06:01:58.458Z,12.88
2022-09-18T06:02:31.648Z,12.89
2022-09-18T06:03:07.659Z,12.90
2022-09-18T06:03:41.644Z,12.91
2022-09-18T06:04:15.055Z,12.90
2022-09-18T06:04:48.109Z,12.91
2022-09-18T06:05:21.646Z,12.92
2022-09-18T06:05:55.599Z,12.92
2022-09-18T06:06:30.088Z,12.92
2022-09-18T06:07:03.425Z,12.91
2022-09-18T06:07:36.646Z,12.92
2022-09-18T06:08:11.670Z,12.91
2022-09-18T06:08:44.749Z,12.91
2022-09-18T06:09:18.025Z,12.91
2022-09-18T06:09:51.106Z,12.91
2022-09-18T06:10:24.482Z,12.91
2022-09-18T06:11:01.411Z,12.91
2022-09-18T06:11:34.654Z,12.91
2022-09-18T06:12:07.919Z,12.91
2022-09-18T06:12:41.127Z,12.91
2022-09-18T06:13:16.817Z,12.91
2022-09-18T06:13:52.055Z,12.91
2022-09-18T06:14:25.118Z,12.91
2022-09-18T06:14:58.271Z,12.91
2022-09-18T06:15:32.485Z,12.93
2022-09-18T06:16:06.009Z,12.94
2022-09-18T06:16:42.330Z,12.95
2022-09-18T06:17:15.717Z,12.97
2022-09-18T06:17:52.336Z,12.98
2022-09-18T06:18:26.468Z,12.99
2022-09-18T06:18:59.596Z,12.99
2022-09-18T06:19:32.746Z,13.00
2022-09-18T06:20:08.655Z,13.00
2022-09-18T06:20:42.803Z,13.00
2022-09-18T06:21:17.086Z,13.01
2022-09-18T06:21:50.703Z,13.03
2022-09-18T06:22:24.065Z,13.03
2022-09-18T06:23:01.592Z,13.04
2022-09-18T06:23:34.966Z,13.03
2022-09-18T06:24:09.876Z,13.04
2022-09-18T06:24:43.321Z,13.05
2022-09-18T06:25:19.606Z,13.06
2022-09-18T06:26:00.892Z,13.06
2022-09-18T06:26:34.144Z,13.06
2022-09-18T06:27:07.890Z,13.06
2022-09-18T06:27:41.145Z,13.08
2022-09-18T06:28:14.488Z,13.09
2022-09-18T06:28:48.625Z,13.10
2022-09-18T06:29:21.840Z,13.12
2022-09-18T06:29:55.060Z,13.13
2022-09-18T06:30:32.625Z,13.14
2022-09-18T06:31:06.231Z,13.15
2022-09-18T06:31:39.664Z,13.15
2022-09-18T06:32:13.462Z,13.15
2022-09-18T06:32:46.890Z,13.16
2022-09-18T06:33:20.225Z,13.17
2022-09-18T06:33:53.378Z,13.18
2022-09-18T06:34:26.845Z,13.18
2022-09-18T06:35:00.063Z,13.19
2022-09-18T06:35:34.795Z,13.19
2022-09-18T06:36:14.125Z,13.20
2022-09-18T06:36:47.316Z,13.21
2022-09-18T06:37:20.550Z,13.21
2022-09-18T06:37:53.912Z,13.22
2022-09-18T06:38:27.203Z,13.22
2022-09-18T06:39:00.630Z,13.23
2022-09-18T06:39:33.988Z,13.24
2022-09-18T06:40:07.830Z,13.25
2022-09-18T06:40:49.485Z,13.27
2022-09-18T06:41:24.395Z,13.27
2022-09-18T06:42:00.426Z,13.28
2022-09-18T06:42:33.633Z,13.28
2022-09-18T06:43:06.855Z,13.29
2022-09-18T06:43:40.030Z,13.28
2022-09-18T06:44:13.577Z,13.28
2022-09-18T06:44:46.901Z,13.28
2022-09-18T06:45:20.139Z,13.28
2022-09-18T06:45:57.956Z,13.28
2022-09-18T06:46:31.249Z,13.27
2022-09-18T06:47:04.646Z,13.27
2022-09-18T06:47:38.066Z,13.27
2022-09-18T06:48:11.321Z,13.27
2022-09-18T06:48:44.443Z,13.28
2022-09-18T06:49:17.740Z,13.29
2022-09-18T06:49:51.055Z,13.29
2022-09-18T06:50:25.512Z,13.30
2022-09-18T06:50:59.832Z,13.30
2022-09-18T06:51:32.909Z,13.32
2022-09-18T06:52:06.240Z,13.33
2022-09-18T06:52:39.410Z,13.33
2022-09-18T06:53:12.970Z,13.35
2022-09-18T06:53:46.478Z,13.37
2022-09-18T06:54:19.535Z,13.37
2022-09-18T06:54:52.732Z,13.37
2022-09-18T06:55:27.416Z,13.38
2022-09-18T06:56:02.815Z,13.38
2022-09-18T06:56:35.851Z,13.38
2022-09-18T06:57:09.213Z,13.38
2022-09-18T06:57:42.974Z,13.38
2022-09-18T06:58:17.631Z,13.37
2022-09-18T06:58:53.930Z,13.38
2022-09-18T06:59:27.432Z,13.39
2022-09-18T07:00:00.744Z,13.39
2022-09-18T07:00:34.337Z,13.39
2022-09-18T07:01:07.769Z,13.39
2022-09-18T07:01:41.506Z,13.39
2022-09-18T07:02:19.231Z,13.39
2022-09-18T07:03:00.750Z,13.38
2022-09-18T07:03:33.913Z,13.37
2022-09-18T07:04:07.143Z,13.38
2022-09-18T07:04:41.259Z,13.38
2022-09-18T07:05:14.524Z,13.36
2022-09-18T07:05:47.772Z,13.35
2022-09-18T07:06:20.971Z,13.34
2022-09-18T07:06:54.634Z,13.33
2022-09-18T07:07:27.907Z,13.34
2022-09-18T07:08:01.929Z,13.34
2022-09-18T07:08:35.049Z,13.33
2022-09-18T07:09:08.177Z,13.32
2022-09-18T07:09:41.501Z,13.32
2022-09-18T07:10:14.820Z,13.32
2022-09-18T07:10:48.160Z,13.32
2022-09-18T07:11:21.822Z,13.31
2022-09-18T07:11:55.502Z,13.32
2022-09-18T07:12:32.190Z,13.31
2022-09-18T07:13:05.977Z,13.32
2022-09-18T07:13:39.123Z,13.31
2022-09-18T07:14:12.530Z,13.33
2022-09-18T07:14:45.797Z,13.35
2022-09-18T07:15:20.349Z,13.35
2022-09-18T07:15:53.683Z,13.35
2022-09-18T07:16:27.026Z,13.35
2022-09-18T07:17:00.442Z,13.34
2022-09-18T07:17:33.889Z,13.34
2022-09-18T07:18:08.259Z,13.33
2022-09-18T07:18:41.296Z,13.34
2022-09-18T07:19:14.727Z,13.34
2022-09-18T07:19:47.978Z,13.33
2022-09-18T07:20:21.269Z,13.32
2022-09-18T07:20:54.579Z,13.32
2022-09-18T07:21:27.956Z,13.33
2022-09-18T07:22:01.587Z,13.34
2022-09-18T07:22:35.092Z,13.34
2022-09-18T07:23:09.242Z,13.34
2022-09-18T07:23:42.997Z,13.34
2022-09-18T07:24:16.018Z,13.34
2022-09-18T07:24:49.110Z,13.34
2022-09-18T07:25:23.176Z,13.34
2022-09-18T07:25:59.616Z,13.32
2022-09-18T07:26:33.004Z,13.30
2022-09-18T07:27:06.170Z,13.27
2022-09-18T07:27:39.358Z,13.25
2022-09-18T07:28:13.888Z,13.24
2022-09-18T07:28:47.148Z,13.23
2022-09-18T07:29:20.893Z,13.23
2022-09-18T07:29:54.284Z,13.22
2022-09-18T07:30:28.051Z,13.22
2022-09-18T07:31:06.006Z,13.21
2022-09-18T07:31:41.812Z,13.20
2022-09-18T07:32:16.031Z,13.18
2022-09-18T07:32:49.441Z,13.17
2022-09-18T07:33:22.776Z,13.16
2022-09-18T07:33:56.961Z,13.17
2022-09-18T07:34:30.358Z,13.17
2022-09-18T07:35:03.914Z,13.17
2022-09-18T07:35:37.362Z,13.17
2022-09-18T07:36:10.582Z,13.18
2022-09-18T07:36:44.085Z,13.18
2022-09-18T07:37:18.065Z,13.19
2022-09-18T07:37:51.163Z,13.20
2022-09-18T07:38:24.345Z,13.19
2022-09-18T07:38:58.366Z,13.18
2022-09-18T07:39:31.857Z,13.18
2022-09-18T07:40:08.210Z,13.17
2022-09-18T07:40:43.633Z,13.16
2022-09-18T07:41:17.676Z,13.15
2022-09-18T07:41:51.064Z,13.14
2022-09-18T07:42:24.428Z,13.12
2022-09-18T07:43:03.499Z,13.11
2022-09-18T07:43:36.709Z,13.09
2022-09-18T07:44:10.679Z,13.08
2022-09-18T07:44:44.354Z,13.06
2022-09-18T07:45:18.254Z,13.05
2022-09-18T07:46:04.402Z,13.02
2022-09-18T07:46:38.437Z,12.99
2022-09-18T07:47:13.081Z,12.97
2022-09-18T07:47:46.382Z,12.96
2022-09-18T07:48:19.726Z,12.95
2022-09-18T07:48:53.065Z,12.95